Skip Navigation LinksHome page > Tools > METAR decoder Skip Navigation Links

METAR decoder

Settings

METAR

Chicago O'Hare Intl, Chicago

For information only: do not use for flight planning or navigation.
Latest weather
Observation time Saturday, August 1, 2015 8:51 PM CDT
Local time Saturday, August 1, 2015 9:15 PM CDT
Flight conditions Visual Meteorological Conditions
Winds
Wind direction West-Southwest (250°)
Wind speed 10 mph
Visibility 10 mi.
Sky condition
Ceiling 25,000 ft. broken clouds
Cloud layer few clouds 5,500 ft.
Cloud layer broken clouds 25,000 ft.
Temperature 79°F
Dewpoint 62°F
Altimeter 29.90 in.Hg
Derived measurements
Relative humidity 56%
Heat index 79°F
Density altitude 2236 ft.
Sea-level pressure 29.88 in.Hg
Remarks
Automated weather observing station with precipitation discriminator.
METAR KORD 020151Z 25009KT 10SM FEW055 BKN250 26/17 A2990 RMK AO2 SLP118 T02610167

InnerDrive.Weather 4.0.5567.0 Release CLR 4.0.30319.34014
Copyright ©2015 Inner Drive Technology. All rights reserved. Portions Copyright ©1986-2015 David Braverman.

Find weather

Site navigation


Skip Navigation Links

Place info

Page info

PayPal - The safer, easier way to pay online!

Return home.

Copyright ©2015 Inner Drive Technology. Purveyors of fine, hand-crafted computer software. Page printed 2015-08-02T02:15:31 UTC.